sensor_id;sensor_type;location;lat;lon;timestamp;pressure;altitude;pressure_sealevel;temperature;humidity
76337;BME280;65157;50.082;18.178;2023-10-31T00:00:29;97705.03;;;13.50;79.59
76337;BME280;65157;50.082;18.178;2023-10-31T00:03:15;97698.27;;;13.51;79.63
76337;BME280;65157;50.082;18.178;2023-10-31T00:05:42;97696.94;;;13.54;79.51
76337;BME280;65157;50.082;18.178;2023-10-31T00:08:09;97686.91;;;13.55;79.41
76337;BME280;65157;50.082;18.178;2023-10-31T00:10:35;97685.58;;;13.59;79.38
76337;BME280;65157;50.082;18.178;2023-10-31T00:13:02;97679.77;;;13.61;79.18
76337;BME280;65157;50.082;18.178;2023-10-31T00:15:29;97667.59;;;13.62;79.18
76337;BME280;65157;50.082;18.178;2023-10-31T00:17:55;97665.15;;;13.64;79.16
76337;BME280;65157;50.082;18.178;2023-10-31T00:20:22;97659.58;;;13.65;79.05
76337;BME280;65157;50.082;18.178;2023-10-31T00:22:48;97654.42;;;13.65;79.03
76337;BME280;65157;50.082;18.178;2023-10-31T00:25:15;97653.30;;;13.66;78.89
76337;BME280;65157;50.082;18.178;2023-10-31T00:27:42;97647.80;;;13.68;78.65
76337;BME280;65157;50.082;18.178;2023-10-31T00:30:09;97642.41;;;13.71;78.31
76337;BME280;65157;50.082;18.178;2023-10-31T00:32:36;97636.32;;;13.76;77.98
76337;BME280;65157;50.082;18.178;2023-10-31T00:35:03;97638.34;;;13.82;77.81
76337;BME280;65157;50.082;18.178;2023-10-31T00:37:29;97630.98;;;13.85;77.56
76337;BME280;65157;50.082;18.178;2023-10-31T00:39:56;97619.48;;;13.87;77.30
76337;BME280;65157;50.082;18.178;2023-10-31T00:42:22;97618.59;;;13.89;77.02
76337;BME280;65157;50.082;18.178;2023-10-31T00:44:49;97610.17;;;13.92;76.85
76337;BME280;65157;50.082;18.178;2023-10-31T00:47:16;97602.44;;;13.93;76.72
76337;BME280;65157;50.082;18.178;2023-10-31T00:49:42;97591.73;;;13.94;76.46
76337;BME280;65157;50.082;18.178;2023-10-31T00:52:09;97595.91;;;13.95;76.23
76337;BME280;65157;50.082;18.178;2023-10-31T00:54:35;97586.82;;;13.96;76.26
76337;BME280;65157;50.082;18.178;2023-10-31T00:57:02;97573.38;;;13.95;76.53
76337;BME280;65157;50.082;18.178;2023-10-31T00:59:29;97563.98;;;13.93;76.28
76337;BME280;65157;50.082;18.178;2023-10-31T01:01:55;97553.45;;;13.92;75.83
76337;BME280;65157;50.082;18.178;2023-10-31T01:04:22;97544.54;;;13.92;75.57
76337;BME280;65157;50.082;18.178;2023-10-31T01:06:49;97544.77;;;13.93;75.30
76337;BME280;65157;50.082;18.178;2023-10-31T01:09:16;97540.63;;;13.96;75.21
76337;BME280;65157;50.082;18.178;2023-10-31T01:11:42;97542.45;;;13.98;74.95
76337;BME280;65157;50.082;18.178;2023-10-31T01:14:09;97540.80;;;14.03;74.27
76337;BME280;65157;50.082;18.178;2023-10-31T01:16:35;97537.35;;;14.16;73.29
76337;BME280;65157;50.082;18.178;2023-10-31T01:19:02;97539.86;;;14.38;72.64
76337;BME280;65157;50.082;18.178;2023-10-31T01:21:29;97534.66;;;14.59;71.90
76337;BME280;65157;50.082;18.178;2023-10-31T01:23:55;97530.23;;;14.77;71.70
76337;BME280;65157;50.082;18.178;2023-10-31T01:26:22;97528.61;;;14.86;71.68
76337;BME280;65157;50.082;18.178;2023-10-31T01:28:49;97516.46;;;14.90;71.41
76337;BME280;65157;50.082;18.178;2023-10-31T01:31:15;97512.55;;;14.94;70.53
76337;BME280;65157;50.082;18.178;2023-10-31T01:33:42;97524.78;;;15.07;70.57
76337;BME280;65157;50.082;18.178;2023-10-31T01:36:08;97521.69;;;15.13;70.40
76337;BME280;65157;50.082;18.178;2023-10-31T01:38:35;97509.65;;;15.15;70.64
76337;BME280;65157;50.082;18.178;2023-10-31T01:41:02;97514.20;;;15.16;70.26
76337;BME280;65157;50.082;18.178;2023-10-31T01:43:36;97511.25;;;15.19;69.99
76337;BME280;65157;50.082;18.178;2023-10-31T01:46:04;97502.25;;;15.20;70.07
76337;BME280;65157;50.082;18.178;2023-10-31T01:48:32;97496.09;;;15.21;69.94
76337;BME280;65157;50.082;18.178;2023-10-31T01:51:01;97492.99;;;15.20;70.00
76337;BME280;65157;50.082;18.178;2023-10-31T01:53:31;97497.98;;;15.20;69.98
76337;BME280;65157;50.082;18.178;2023-10-31T01:55:59;97488.96;;;15.19;69.90
76337;BME280;65157;50.082;18.178;2023-10-31T01:58:30;97485.63;;;15.19;69.64
76337;BME280;65157;50.082;18.178;2023-10-31T02:00:57;97469.65;;;15.19;69.55
76337;BME280;65157;50.082;18.178;2023-10-31T02:03:25;97467.96;;;15.18;69.63
76337;BME280;65157;50.082;18.178;2023-10-31T02:05:52;97459.91;;;15.17;69.54
76337;BME280;65157;50.082;18.178;2023-10-31T02:08:18;97450.80;;;15.15;69.43
76337;BME280;65157;50.082;18.178;2023-10-31T02:10:45;97445.04;;;15.14;69.38
76337;BME280;65157;50.082;18.178;2023-10-31T02:13:16;97438.05;;;15.13;69.43
76337;BME280;65157;50.082;18.178;2023-10-31T02:15:44;97437.48;;;15.11;69.49
76337;BME280;65157;50.082;18.178;2023-10-31T02:18:12;97434.34;;;15.10;69.33
76337;BME280;65157;50.082;18.178;2023-10-31T02:20:39;97437.76;;;15.10;69.27
76337;BME280;65157;50.082;18.178;2023-10-31T02:23:06;97439.50;;;15.11;69.24
76337;BME280;65157;50.082;18.178;2023-10-31T02:25:33;97441.50;;;15.10;69.04
76337;BME280;65157;50.082;18.178;2023-10-31T02:28:00;97435.42;;;15.10;69.02
76337;BME280;65157;50.082;18.178;2023-10-31T02:30:27;97440.54;;;15.11;69.00
76337;BME280;65157;50.082;18.178;2023-10-31T02:32:56;97432.61;;;15.10;68.88
76337;BME280;65157;50.082;18.178;2023-10-31T02:35:23;97423.28;;;15.11;68.85
76337;BME280;65157;50.082;18.178;2023-10-31T02:37:49;97424.41;;;15.14;68.23
76337;BME280;65157;50.082;18.178;2023-10-31T02:40:16;97420.47;;;15.20;67.81
76337;BME280;65157;50.082;18.178;2023-10-31T02:42:43;97406.67;;;15.32;67.43
76337;BME280;65157;50.082;18.178;2023-10-31T02:45:10;97406.34;;;15.41;67.25
76337;BME280;65157;50.082;18.178;2023-10-31T02:47:36;97408.38;;;15.50;66.80
76337;BME280;65157;50.082;18.178;2023-10-31T02:50:03;97406.50;;;15.61;66.42
76337;BME280;65157;50.082;18.178;2023-10-31T02:52:30;97405.85;;;15.71;66.07
76337;BME280;65157;50.082;18.178;2023-10-31T02:54:57;97400.88;;;15.81;65.80
76337;BME280;65157;50.082;18.178;2023-10-31T02:57:23;97390.98;;;15.88;65.52
76337;BME280;65157;50.082;18.178;2023-10-31T02:59:50;97388.70;;;15.95;65.28
76337;BME280;65157;50.082;18.178;2023-10-31T03:02:16;97387.85;;;16.04;64.69
76337;BME280;65157;50.082;18.178;2023-10-31T03:04:43;97391.02;;;16.16;63.99
76337;BME280;65157;50.082;18.178;2023-10-31T03:07:10;97391.33;;;16.29;63.67
76337;BME280;65157;50.082;18.178;2023-10-31T03:09:36;97392.46;;;16.39;63.61
76337;BME280;65157;50.082;18.178;2023-10-31T03:12:03;97385.55;;;16.47;63.18
76337;BME280;65157;50.082;18.178;2023-10-31T03:14:30;97372.92;;;16.54;63.22
76337;BME280;65157;50.082;18.178;2023-10-31T03:16:57;97372.85;;;16.59;62.43
76337;BME280;65157;50.082;18.178;2023-10-31T03:19:23;97367.67;;;16.66;62.24
76337;BME280;65157;50.082;18.178;2023-10-31T03:21:50;97356.44;;;16.73;61.89
76337;BME280;65157;50.082;18.178;2023-10-31T03:24:17;97354.52;;;16.80;61.58
76337;BME280;65157;50.082;18.178;2023-10-31T03:26:43;97352.98;;;16.86;61.33
76337;BME280;65157;50.082;18.178;2023-10-31T03:29:10;97344.79;;;16.94;61.15
76337;BME280;65157;50.082;18.178;2023-10-31T03:31:37;97344.33;;;16.99;61.14
76337;BME280;65157;50.082;18.178;2023-10-31T03:34:03;97338.75;;;17.03;60.42
76337;BME280;65157;50.082;18.178;2023-10-31T03:36:30;97340.04;;;17.10;59.98
76337;BME280;65157;50.082;18.178;2023-10-31T03:38:57;97330.73;;;17.15;59.59
76337;BME280;65157;50.082;18.178;2023-10-31T03:41:24;97326.92;;;17.18;59.65
76337;BME280;65157;50.082;18.178;2023-10-31T03:43:50;97316.44;;;17.23;59.57
76337;BME280;65157;50.082;18.178;2023-10-31T03:46:17;97311.08;;;17.24;59.47
76337;BME280;65157;50.082;18.178;2023-10-31T03:48:44;97312.48;;;17.26;58.84
76337;BME280;65157;50.082;18.178;2023-10-31T03:51:10;97313.59;;;17.35;58.43
76337;BME280;65157;50.082;18.178;2023-10-31T03:53:37;97317.29;;;17.42;58.13
76337;BME280;65157;50.082;18.178;2023-10-31T03:56:04;97314.00;;;17.48;58.06
76337;BME280;65157;50.082;18.178;2023-10-31T03:58:31;97317.65;;;17.53;58.07
76337;BME280;65157;50.082;18.178;2023-10-31T04:00:57;97320.55;;;17.56;57.43
76337;BME280;65157;50.082;18.178;2023-10-31T04:03:24;97326.96;;;17.63;56.87
76337;BME280;65157;50.082;18.178;2023-10-31T04:05:50;97322.60;;;17.69;55.98
76337;BME280;65157;50.082;18.178;2023-10-31T04:08:17;97319.69;;;17.75;56.36
76337;BME280;65157;50.082;18.178;2023-10-31T04:10:43;97323.05;;;17.77;56.00
76337;BME280;65157;50.082;18.178;2023-10-31T04:13:10;97330.48;;;17.79;55.74
76337;BME280;65157;50.082;18.178;2023-10-31T04:15:37;97328.08;;;17.80;55.77
76337;BME280;65157;50.082;18.178;2023-10-31T04:18:03;97327.63;;;17.81;55.45
76337;BME280;65157;50.082;18.178;2023-10-31T04:20:30;97327.48;;;17.86;55.84
76337;BME280;65157;50.082;18.178;2023-10-31T04:22:56;97330.58;;;17.85;55.69
76337;BME280;65157;50.082;18.178;2023-10-31T04:25:23;97332.79;;;17.83;55.74
76337;BME280;65157;50.082;18.178;2023-10-31T04:27:50;97334.61;;;17.81;56.53
76337;BME280;65157;50.082;18.178;2023-10-31T04:30:16;97332.45;;;17.78;56.39
76337;BME280;65157;50.082;18.178;2023-10-31T04:32:43;97335.90;;;17.75;55.82
76337;BME280;65157;50.082;18.178;2023-10-31T04:35:09;97335.35;;;17.76;55.76
76337;BME280;65157;50.082;18.178;2023-10-31T04:37:36;97325.34;;;17.76;55.73
76337;BME280;65157;50.082;18.178;2023-10-31T04:40:02;97328.97;;;17.79;55.62
76337;BME280;65157;50.082;18.178;2023-10-31T04:42:29;97329.80;;;17.79;55.25
76337;BME280;65157;50.082;18.178;2023-10-31T04:44:56;97325.09;;;17.80;55.80
76337;BME280;65157;50.082;18.178;2023-10-31T04:47:22;97317.63;;;17.76;55.57
76337;BME280;65157;50.082;18.178;2023-10-31T04:49:49;97322.73;;;17.78;55.83
76337;BME280;65157;50.082;18.178;2023-10-31T04:52:17;97321.93;;;17.77;56.09
76337;BME280;65157;50.082;18.178;2023-10-31T04:54:44;97319.25;;;17.74;56.43
76337;BME280;65157;50.082;18.178;2023-10-31T04:57:11;97318.25;;;17.70;56.44
76337;BME280;65157;50.082;18.178;2023-10-31T04:59:37;97319.77;;;17.66;56.43
76337;BME280;65157;50.082;18.178;2023-10-31T05:02:04;97324.04;;;17.64;56.28
76337;BME280;65157;50.082;18.178;2023-10-31T05:04:31;97332.33;;;17.63;56.54
76337;BME280;65157;50.082;18.178;2023-10-31T05:06:57;97332.84;;;17.62;56.11
76337;BME280;65157;50.082;18.178;2023-10-31T05:09:24;97336.33;;;17.63;56.29
76337;BME280;65157;50.082;18.178;2023-10-31T05:11:51;97342.27;;;17.64;55.75
76337;BME280;65157;50.082;18.178;2023-10-31T05:14:17;97341.20;;;17.66;55.60
76337;BME280;65157;50.082;18.178;2023-10-31T05:16:44;97347.71;;;17.66;55.63
76337;BME280;65157;50.082;18.178;2023-10-31T05:19:11;97353.23;;;17.67;55.71
76337;BME280;65157;50.082;18.178;2023-10-31T05:21:37;97354.31;;;17.68;54.86
76337;BME280;65157;50.082;18.178;2023-10-31T05:24:04;97363.28;;;17.71;54.89
76337;BME280;65157;50.082;18.178;2023-10-31T05:26:31;97370.23;;;17.71;54.90
76337;BME280;65157;50.082;18.178;2023-10-31T05:28:57;97385.55;;;17.70;54.65
76337;BME280;65157;50.082;18.178;2023-10-31T05:31:24;97386.84;;;17.69;54.59
76337;BME280;65157;50.082;18.178;2023-10-31T05:33:51;97395.63;;;17.69;54.96
76337;BME280;65157;50.082;18.178;2023-10-31T05:36:19;97400.73;;;17.66;55.19
76337;BME280;65157;50.082;18.178;2023-10-31T05:38:46;97408.55;;;17.63;55.03
76337;BME280;65157;50.082;18.178;2023-10-31T05:41:14;97406.95;;;17.63;54.38
76337;BME280;65157;50.082;18.178;2023-10-31T05:43:41;97417.16;;;17.64;55.14
76337;BME280;65157;50.082;18.178;2023-10-31T05:46:08;97417.40;;;17.62;54.92
76337;BME280;65157;50.082;18.178;2023-10-31T05:48:35;97429.35;;;17.60;54.77
76337;BME280;65157;50.082;18.178;2023-10-31T05:51:01;97425.73;;;17.57;55.04
76337;BME280;65157;50.082;18.178;2023-10-31T05:53:30;97435.48;;;17.56;55.15
76337;BME280;65157;50.082;18.178;2023-10-31T05:55:57;97434.80;;;17.51;55.31
76337;BME280;65157;50.082;18.178;2023-10-31T05:58:25;97439.63;;;17.46;55.38
76337;BME280;65157;50.082;18.178;2023-10-31T06:00:51;97444.19;;;17.43;55.58
76337;BME280;65157;50.082;18.178;2023-10-31T06:03:18;97440.38;;;17.38;56.09
76337;BME280;65157;50.082;18.178;2023-10-31T06:05:45;97451.21;;;17.32;56.24
76337;BME280;65157;50.082;18.178;2023-10-31T06:08:12;97452.98;;;17.28;56.31
76337;BME280;65157;50.082;18.178;2023-10-31T06:10:38;97451.86;;;17.24;56.84
76337;BME280;65157;50.082;18.178;2023-10-31T06:13:05;97462.30;;;17.17;57.28
76337;BME280;65157;50.082;18.178;2023-10-31T06:15:32;97468.48;;;17.11;57.57
76337;BME280;65157;50.082;18.178;2023-10-31T06:17:58;97469.43;;;17.04;58.21
76337;BME280;65157;50.082;18.178;2023-10-31T06:20:26;97479.15;;;16.98;58.23
76337;BME280;65157;50.082;18.178;2023-10-31T06:22:52;97486.69;;;16.91;58.43
76337;BME280;65157;50.082;18.178;2023-10-31T06:25:19;97484.56;;;16.88;58.98
76337;BME280;65157;50.082;18.178;2023-10-31T06:27:46;97489.34;;;16.81;59.36
76337;BME280;65157;50.082;18.178;2023-10-31T06:30:13;97488.27;;;16.74;59.75
76337;BME280;65157;50.082;18.178;2023-10-31T06:32:39;97492.55;;;16.70;59.87
76337;BME280;65157;50.082;18.178;2023-10-31T06:35:06;97503.33;;;16.64;60.20
76337;BME280;65157;50.082;18.178;2023-10-31T06:37:33;97499.00;;;16.58;60.12
76337;BME280;65157;50.082;18.178;2023-10-31T06:40:00;97510.14;;;16.55;60.30
76337;BME280;65157;50.082;18.178;2023-10-31T06:42:26;97513.66;;;16.52;60.36
76337;BME280;65157;50.082;18.178;2023-10-31T06:44:53;97527.87;;;16.49;60.38
76337;BME280;65157;50.082;18.178;2023-10-31T06:47:19;97530.02;;;16.45;60.84
76337;BME280;65157;50.082;18.178;2023-10-31T06:49:46;97536.14;;;16.40;60.76
76337;BME280;65157;50.082;18.178;2023-10-31T06:52:12;97536.95;;;16.37;61.00
76337;BME280;65157;50.082;18.178;2023-10-31T06:54:39;97540.26;;;16.34;61.26
76337;BME280;65157;50.082;18.178;2023-10-31T06:57:06;97546.48;;;16.30;61.37
76337;BME280;65157;50.082;18.178;2023-10-31T06:59:33;97543.96;;;16.26;61.64
76337;BME280;65157;50.082;18.178;2023-10-31T07:02:00;97541.70;;;16.22;61.86
76337;BME280;65157;50.082;18.178;2023-10-31T07:04:27;97538.40;;;16.19;62.09
76337;BME280;65157;50.082;18.178;2023-10-31T07:06:55;97544.34;;;16.17;61.68
76337;BME280;65157;50.082;18.178;2023-10-31T07:09:21;97549.40;;;16.16;62.08
76337;BME280;65157;50.082;18.178;2023-10-31T07:11:48;97552.65;;;16.14;62.22
76337;BME280;65157;50.082;18.178;2023-10-31T07:14:14;97558.16;;;16.12;62.15
76337;BME280;65157;50.082;18.178;2023-10-31T07:16:41;97559.78;;;16.12;62.17
76337;BME280;65157;50.082;18.178;2023-10-31T07:19:08;97565.09;;;16.12;62.21
76337;BME280;65157;50.082;18.178;2023-10-31T07:21:34;97570.95;;;16.12;62.16
76337;BME280;65157;50.082;18.178;2023-10-31T07:24:01;97576.00;;;16.11;62.10
76337;BME280;65157;50.082;18.178;2023-10-31T07:26:27;97577.02;;;16.12;62.20
76337;BME280;65157;50.082;18.178;2023-10-31T07:28:54;97583.12;;;16.13;61.75
76337;BME280;65157;50.082;18.178;2023-10-31T07:31:21;97579.41;;;16.15;61.46
76337;BME280;65157;50.082;18.178;2023-10-31T07:33:48;97577.02;;;16.18;61.53
76337;BME280;65157;50.082;18.178;2023-10-31T07:36:15;97582.12;;;16.18;61.73
76337;BME280;65157;50.082;18.178;2023-10-31T07:38:43;97590.47;;;16.19;61.62
76337;BME280;65157;50.082;18.178;2023-10-31T07:41:10;97592.06;;;16.19;61.73
76337;BME280;65157;50.082;18.178;2023-10-31T07:43:37;97596.59;;;16.18;61.92
76337;BME280;65157;50.082;18.178;2023-10-31T07:46:04;97609.58;;;16.16;62.19
76337;BME280;65157;50.082;18.178;2023-10-31T07:48:31;97612.89;;;16.13;62.46
76337;BME280;65157;50.082;18.178;2023-10-31T07:50:57;97622.15;;;16.11;62.78
76337;BME280;65157;50.082;18.178;2023-10-31T07:53:24;97633.52;;;16.05;63.26
76337;BME280;65157;50.082;18.178;2023-10-31T07:55:50;97633.55;;;16.01;63.48
76337;BME280;65157;50.082;18.178;2023-10-31T07:58:17;97640.77;;;15.98;64.02
76337;BME280;65157;50.082;18.178;2023-10-31T08:00:44;97643.77;;;15.95;64.26
76337;BME280;65157;50.082;18.178;2023-10-31T08:03:10;97644.77;;;15.91;64.82
76337;BME280;65157;50.082;18.178;2023-10-31T08:05:39;97644.07;;;15.87;65.10
76337;BME280;65157;50.082;18.178;2023-10-31T08:08:06;97651.79;;;15.82;65.95
76337;BME280;65157;50.082;18.178;2023-10-31T08:10:33;97655.36;;;15.78;66.12
76337;BME280;65157;50.082;18.178;2023-10-31T08:13:00;97667.32;;;15.75;66.55
76337;BME280;65157;50.082;18.178;2023-10-31T08:15:26;97675.77;;;15.73;66.84
76337;BME280;65157;50.082;18.178;2023-10-31T08:17:53;97673.17;;;15.70;67.50
76337;BME280;65157;50.082;18.178;2023-10-31T08:20:20;97670.12;;;15.64;68.44
76337;BME280;65157;50.082;18.178;2023-10-31T08:22:46;97676.36;;;15.58;69.08
76337;BME280;65157;50.082;18.178;2023-10-31T08:25:13;97675.04;;;15.51;69.41
76337;BME280;65157;50.082;18.178;2023-10-31T08:27:40;97674.46;;;15.49;69.55
76337;BME280;65157;50.082;18.178;2023-10-31T08:30:07;97676.29;;;15.49;69.76
76337;BME280;65157;50.082;18.178;2023-10-31T08:32:36;97667.39;;;15.49;69.90
76337;BME280;65157;50.082;18.178;2023-10-31T08:35:02;97671.91;;;15.48;70.26
76337;BME280;65157;50.082;18.178;2023-10-31T08:37:29;97679.64;;;15.47;70.26
76337;BME280;65157;50.082;18.178;2023-10-31T08:39:55;97689.86;;;15.46;70.28
76337;BME280;65157;50.082;18.178;2023-10-31T08:42:23;97681.90;;;15.45;70.81
76337;BME280;65157;50.082;18.178;2023-10-31T08:44:50;97665.75;;;15.45;70.57
76337;BME280;65157;50.082;18.178;2023-10-31T08:47:17;97662.34;;;15.46;71.13
76337;BME280;65157;50.082;18.178;2023-10-31T08:49:44;97672.29;;;15.48;70.94
76337;BME280;65157;50.082;18.178;2023-10-31T08:52:10;97681.80;;;15.53;70.97
76337;BME280;65157;50.082;18.178;2023-10-31T08:54:37;97687.13;;;15.55;70.99
76337;BME280;65157;50.082;18.178;2023-10-31T08:57:04;97700.73;;;15.56;71.16
76337;BME280;65157;50.082;18.178;2023-10-31T08:59:30;97705.80;;;15.57;70.84
76337;BME280;65157;50.082;18.178;2023-10-31T09:01:57;97714.02;;;15.58;70.88
76337;BME280;65157;50.082;18.178;2023-10-31T09:04:25;97723.34;;;15.60;71.12
76337;BME280;65157;50.082;18.178;2023-10-31T09:06:51;97730.52;;;15.59;71.03
76337;BME280;65157;50.082;18.178;2023-10-31T09:09:18;97733.61;;;15.58;71.04
76337;BME280;65157;50.082;18.178;2023-10-31T09:11:45;97739.71;;;15.59;71.15
76337;BME280;65157;50.082;18.178;2023-10-31T09:14:11;97741.00;;;15.59;70.95
76337;BME280;65157;50.082;18.178;2023-10-31T09:16:38;97742.33;;;15.60;71.10
76337;BME280;65157;50.082;18.178;2023-10-31T09:19:06;97740.04;;;15.62;70.84
76337;BME280;65157;50.082;18.178;2023-10-31T09:21:33;97740.55;;;15.64;70.76
76337;BME280;65157;50.082;18.178;2023-10-31T09:24:00;97742.93;;;15.63;70.51
76337;BME280;65157;50.082;18.178;2023-10-31T09:26:27;97753.61;;;15.69;70.22
76337;BME280;65157;50.082;18.178;2023-10-31T09:28:55;97753.43;;;15.73;70.24
76337;BME280;65157;50.082;18.178;2023-10-31T09:31:22;97751.52;;;15.73;70.13
76337;BME280;65157;50.082;18.178;2023-10-31T09:33:48;97748.83;;;15.77;70.12
76337;BME280;65157;50.082;18.178;2023-10-31T09:36:15;97750.95;;;15.79;69.98
76337;BME280;65157;50.082;18.178;2023-10-31T09:38:42;97755.29;;;15.81;69.80
76337;BME280;65157;50.082;18.178;2023-10-31T09:41:09;97757.80;;;15.82;70.02
76337;BME280;65157;50.082;18.178;2023-10-31T09:43:35;97755.70;;;15.82;70.16
76337;BME280;65157;50.082;18.178;2023-10-31T09:46:02;97750.02;;;15.82;69.90
76337;BME280;65157;50.082;18.178;2023-10-31T09:48:31;97758.25;;;15.81;69.85
76337;BME280;65157;50.082;18.178;2023-10-31T09:50:58;97777.00;;;15.78;69.96
76337;BME280;65157;50.082;18.178;2023-10-31T09:53:25;97784.37;;;15.76;69.96
76337;BME280;65157;50.082;18.178;2023-10-31T09:55:53;97789.48;;;15.74;70.19
76337;BME280;65157;50.082;18.178;2023-10-31T09:58:20;97778.56;;;15.67;70.28
76337;BME280;65157;50.082;18.178;2023-10-31T10:00:47;97781.08;;;15.69;70.20
76337;BME280;65157;50.082;18.178;2023-10-31T10:03:14;97784.00;;;15.70;70.01
76337;BME280;65157;50.082;18.178;2023-10-31T10:05:43;97779.02;;;15.68;70.14
76337;BME280;65157;50.082;18.178;2023-10-31T10:08:10;97779.38;;;15.67;70.42
76337;BME280;65157;50.082;18.178;2023-10-31T10:10:37;97776.65;;;15.66;70.20
76337;BME280;65157;50.082;18.178;2023-10-31T10:13:03;97780.23;;;15.68;70.29
76337;BME280;65157;50.082;18.178;2023-10-31T10:15:30;97785.05;;;15.66;70.17
76337;BME280;65157;50.082;18.178;2023-10-31T10:17:58;97779.92;;;15.63;70.05
76337;BME280;65157;50.082;18.178;2023-10-31T10:20:25;97767.88;;;15.61;70.22
76337;BME280;65157;50.082;18.178;2023-10-31T10:22:51;97759.39;;;15.61;70.23
76337;BME280;65157;50.082;18.178;2023-10-31T10:25:18;97759.59;;;15.62;70.11
76337;BME280;65157;50.082;18.178;2023-10-31T10:27:46;97766.77;;;15.66;70.28
76337;BME280;65157;50.082;18.178;2023-10-31T10:30:14;97778.80;;;15.68;70.35
76337;BME280;65157;50.082;18.178;2023-10-31T10:32:41;97779.36;;;15.70;70.42
76337;BME280;65157;50.082;18.178;2023-10-31T10:35:08;97773.47;;;15.72;70.68
76337;BME280;65157;50.082;18.178;2023-10-31T10:37:38;97767.52;;;15.75;70.62
76337;BME280;65157;50.082;18.178;2023-10-31T10:40:07;97763.82;;;15.81;70.92
76337;BME280;65157;50.082;18.178;2023-10-31T10:42:46;97754.86;;;15.90;70.30
76337;BME280;65157;50.082;18.178;2023-10-31T10:45:14;97762.91;;;16.01;70.23
76337;BME280;65157;50.082;18.178;2023-10-31T10:47:45;97755.84;;;16.09;69.78
76337;BME280;65157;50.082;18.178;2023-10-31T10:50:12;97758.75;;;16.14;69.58
76337;BME280;65157;50.082;18.178;2023-10-31T10:52:46;97760.97;;;16.17;69.64
76337;BME280;65157;50.082;18.178;2023-10-31T10:55:25;97766.95;;;16.20;69.06
76337;BME280;65157;50.082;18.178;2023-10-31T10:58:03;97770.25;;;16.19;68.70
76337;BME280;65157;50.082;18.178;2023-10-31T11:00:31;97768.52;;;16.16;68.70
76337;BME280;65157;50.082;18.178;2023-10-31T11:02:58;97774.86;;;16.15;68.47
76337;BME280;65157;50.082;18.178;2023-10-31T11:05:25;97779.08;;;16.14;68.34
76337;BME280;65157;50.082;18.178;2023-10-31T11:07:53;97777.16;;;16.11;68.18
76337;BME280;65157;50.082;18.178;2023-10-31T11:10:21;97777.39;;;16.09;68.36
76337;BME280;65157;50.082;18.178;2023-10-31T11:12:47;97782.54;;;16.05;68.28
76337;BME280;65157;50.082;18.178;2023-10-31T11:15:16;97782.61;;;16.04;68.54
76337;BME280;65157;50.082;18.178;2023-10-31T11:17:44;97779.46;;;16.08;68.65
76337;BME280;65157;50.082;18.178;2023-10-31T11:20:13;97775.48;;;16.10;68.40
76337;BME280;65157;50.082;18.178;2023-10-31T11:22:42;97767.58;;;16.11;68.44
76337;BME280;65157;50.082;18.178;2023-10-31T11:25:12;97766.30;;;16.11;68.38
76337;BME280;65157;50.082;18.178;2023-10-31T11:27:39;97766.96;;;16.12;68.01
76337;BME280;65157;50.082;18.178;2023-10-31T11:32:54;97767.20;;;16.05;68.31
76337;BME280;65157;50.082;18.178;2023-10-31T11:35:22;97767.00;;;16.03;67.91
76337;BME280;65157;50.082;18.178;2023-10-31T11:37:49;97768.55;;;16.02;68.07
76337;BME280;65157;50.082;18.178;2023-10-31T11:40:27;97761.68;;;15.99;67.98
76337;BME280;65157;50.082;18.178;2023-10-31T11:42:57;97757.10;;;15.99;68.19
76337;BME280;65157;50.082;18.178;2023-10-31T11:45:44;97764.27;;;16.02;68.26
76337;BME280;65157;50.082;18.178;2023-10-31T11:48:11;97776.88;;;16.04;68.02
76337;BME280;65157;50.082;18.178;2023-10-31T11:50:39;97768.39;;;16.04;67.71
76337;BME280;65157;50.082;18.178;2023-10-31T11:53:09;97758.44;;;16.04;67.55
76337;BME280;65157;50.082;18.178;2023-10-31T11:55:40;97754.68;;;16.04;67.07
76337;BME280;65157;50.082;18.178;2023-10-31T11:58:23;97755.88;;;16.04;67.21
76337;BME280;65157;50.082;18.178;2023-10-31T12:00:52;97759.59;;;16.01;67.42
76337;BME280;65157;50.082;18.178;2023-10-31T12:03:21;97761.34;;;15.99;67.72
76337;BME280;65157;50.082;18.178;2023-10-31T12:05:59;97755.86;;;15.99;68.06
76337;BME280;65157;50.082;18.178;2023-10-31T12:08:35;97756.27;;;16.00;68.35
76337;BME280;65157;50.082;18.178;2023-10-31T12:13:41;97746.23;;;16.01;68.92
76337;BME280;65157;50.082;18.178;2023-10-31T12:16:09;97741.10;;;16.01;68.47
76337;BME280;65157;50.082;18.178;2023-10-31T12:18:37;97733.70;;;16.02;68.46
76337;BME280;65157;50.082;18.178;2023-10-31T12:21:04;97728.62;;;16.03;68.76
76337;BME280;65157;50.082;18.178;2023-10-31T12:23:31;97725.79;;;16.05;69.01
76337;BME280;65157;50.082;18.178;2023-10-31T12:25:57;97726.43;;;16.03;69.03
76337;BME280;65157;50.082;18.178;2023-10-31T12:28:25;97725.20;;;15.99;69.42
76337;BME280;65157;50.082;18.178;2023-10-31T12:30:53;97722.27;;;15.96;70.29
76337;BME280;65157;50.082;18.178;2023-10-31T12:33:22;97717.14;;;15.92;70.76
76337;BME280;65157;50.082;18.178;2023-10-31T12:35:49;97715.05;;;15.83;70.99
76337;BME280;65157;50.082;18.178;2023-10-31T12:38:16;97718.38;;;15.80;71.38
76337;BME280;65157;50.082;18.178;2023-10-31T12:40:43;97719.86;;;15.77;71.69
76337;BME280;65157;50.082;18.178;2023-10-31T12:43:10;97733.98;;;15.70;71.35
76337;BME280;65157;50.082;18.178;2023-10-31T12:45:37;97738.23;;;15.62;71.57
76337;BME280;65157;50.082;18.178;2023-10-31T12:48:07;97741.70;;;15.53;71.68
76337;BME280;65157;50.082;18.178;2023-10-31T12:50:36;97737.48;;;15.42;71.71
76337;BME280;65157;50.082;18.178;2023-10-31T12:53:03;97733.63;;;15.33;71.91
76337;BME280;65157;50.082;18.178;2023-10-31T12:55:30;97736.54;;;15.24;72.10